Ullin, Illinois
Current Conditions -  °F | °C
As of 1:15 PM on Monday 20 Oct 2014 (Local Time) from KCIR Reporting Station
Scattered Clouds Scattered Clouds  
Wind Chill: 73°   Ceiling: Unl
Heat Index: 73°   Visibility: 10mi
Dew Point: 53°   Wind: 7mph
Humidity: 49%   Direction: 220°SW
Pressure: 29.99"   Gusts: NA
Location:  37.28°N, 89.18°W
Report Text: KCIR 201815Z AUTO 22006KT 10SM SCT090 23/11 A2999 RMK AO2 T02260114
Loading
Personal Weather Stations






























Interactive Weather Map
Tropical Storm Tracking
New forecast layout! Learn more

10-Day Weather Forecast

Advertisements
Track Severe Weather on mobile